sensor_id;sensor_type;location;lat;lon;timestamp;noise_LAeq;noise_LA_min;noise_LA_max;noise_LA01;noise_LA95
60116;Laerm;62818;49.394;8.686;2023-04-05T00:00:16;91.62;42.22;109.13;;
60116;Laerm;62818;49.394;8.686;2023-04-05T00:01:19;93.16;42.88;109.32;;
60116;Laerm;62818;49.394;8.686;2023-04-05T00:02:19;51.25;41.61;67.12;;
60116;Laerm;62818;49.394;8.686;2023-04-05T00:03:20;91.94;41.30;109.01;;
60116;Laerm;62818;49.394;8.686;2023-04-05T00:04:21;91.94;40.80;108.89;;
60116;Laerm;62818;49.394;8.686;2023-04-05T00:05:22;92.05;41.30;109.06;;
60116;Laerm;62818;49.394;8.686;2023-04-05T00:06:30;91.54;41.14;109.20;;
60116;Laerm;62818;49.394;8.686;2023-04-05T00:07:30;92.14;40.03;109.25;;
60116;Laerm;62818;49.394;8.686;2023-04-05T00:08:33;92.07;40.71;109.09;;
60116;Laerm;62818;49.394;8.686;2023-04-05T00:09:33;92.37;40.13;109.09;;
60116;Laerm;62818;49.394;8.686;2023-04-05T00:10:36;92.16;40.33;109.14;;
60116;Laerm;62818;49.394;8.686;2023-04-05T00:11:36;92.27;40.62;109.32;;
60116;Laerm;62818;49.394;8.686;2023-04-05T00:12:37;91.74;41.22;109.19;;
60116;Laerm;62818;49.394;8.686;2023-04-05T00:13:37;91.59;40.13;109.01;;
60116;Laerm;62818;49.394;8.686;2023-04-05T00:14:38;91.73;41.22;109.26;;
60116;Laerm;62818;49.394;8.686;2023-04-05T00:15:38;93.21;40.33;109.28;;
60116;Laerm;62818;49.394;8.686;2023-04-05T00:16:39;92.23;40.33;109.05;;
60116;Laerm;62818;49.394;8.686;2023-04-05T00:17:40;91.96;40.53;109.29;;
60116;Laerm;62818;49.394;8.686;2023-04-05T00:18:41;91.93;45.42;109.09;;
60116;Laerm;62818;49.394;8.686;2023-04-05T00:19:48;91.61;45.25;109.12;;
60116;Laerm;62818;49.394;8.686;2023-04-05T00:20:56;91.77;44.73;109.20;;
60116;Laerm;62818;49.394;8.686;2023-04-05T00:21:56;92.06;44.87;109.09;;
60116;Laerm;62818;49.394;8.686;2023-04-05T00:22:58;92.06;45.01;109.24;;
60116;Laerm;62818;49.394;8.686;2023-04-05T00:23:59;92.01;44.69;109.28;;
60116;Laerm;62818;49.394;8.686;2023-04-05T00:24:59;93.18;44.94;109.39;;
60116;Laerm;62818;49.394;8.686;2023-04-05T00:26:00;91.72;44.51;109.12;;
60116;Laerm;62818;49.394;8.686;2023-04-05T00:27:00;91.55;44.47;109.04;;
60116;Laerm;62818;49.394;8.686;2023-04-05T00:28:01;91.84;44.58;108.97;;
60116;Laerm;62818;49.394;8.686;2023-04-05T00:29:02;92.01;44.58;109.05;;
60116;Laerm;62818;49.394;8.686;2023-04-05T00:30:02;92.81;44.65;109.05;;
60116;Laerm;62818;49.394;8.686;2023-04-05T00:31:04;91.49;44.47;109.30;;
60116;Laerm;62818;49.394;8.686;2023-04-05T00:32:05;47.31;44.76;63.65;;
60116;Laerm;62818;49.394;8.686;2023-04-05T00:33:05;93.50;45.14;109.07;;
60116;Laerm;62818;49.394;8.686;2023-04-05T00:34:06;91.85;44.80;109.10;;
60116;Laerm;62818;49.394;8.686;2023-04-05T00:35:08;92.27;44.65;109.09;;
60116;Laerm;62818;49.394;8.686;2023-04-05T00:36:17;91.96;44.58;109.25;;
60116;Laerm;62818;49.394;8.686;2023-04-05T00:37:18;92.23;44.43;109.20;;
60116;Laerm;62818;49.394;8.686;2023-04-05T00:38:20;53.55;44.45;76.55;;
60116;Laerm;62818;49.394;8.686;2023-04-05T00:39:20;93.03;44.69;109.10;;
60116;Laerm;62818;49.394;8.686;2023-04-05T00:40:22;92.37;45.11;109.07;;
60116;Laerm;62818;49.394;8.686;2023-04-05T00:41:22;92.11;45.34;109.41;;
60116;Laerm;62818;49.394;8.686;2023-04-05T00:42:23;92.71;45.30;108.89;;
60116;Laerm;62818;49.394;8.686;2023-04-05T00:43:23;91.86;45.07;109.38;;
60116;Laerm;62818;49.394;8.686;2023-04-05T00:44:24;91.79;44.72;109.32;;
60116;Laerm;62818;49.394;8.686;2023-04-05T00:45:25;54.62;44.58;79.22;;
60116;Laerm;62818;49.394;8.686;2023-04-05T00:46:26;92.25;44.73;109.05;;
60116;Laerm;62818;49.394;8.686;2023-04-05T00:47:27;91.91;44.76;108.98;;
60116;Laerm;62818;49.394;8.686;2023-04-05T00:48:28;92.11;44.39;109.33;;
60116;Laerm;62818;49.394;8.686;2023-04-05T00:49:31;92.00;44.43;109.48;;
60116;Laerm;62818;49.394;8.686;2023-04-05T00:50:32;92.22;44.94;109.33;;
60116;Laerm;62818;49.394;8.686;2023-04-05T00:51:34;93.47;44.69;109.21;;
60116;Laerm;62818;49.394;8.686;2023-04-05T00:52:36;92.25;44.62;109.04;;
60116;Laerm;62818;49.394;8.686;2023-04-05T00:53:43;91.84;44.27;109.31;;
60116;Laerm;62818;49.394;8.686;2023-04-05T00:54:44;92.13;44.43;109.35;;
60116;Laerm;62818;49.394;8.686;2023-04-05T00:55:49;92.10;44.35;109.23;;
60116;Laerm;62818;49.394;8.686;2023-04-05T00:56:51;92.67;44.11;109.17;;
60116;Laerm;62818;49.394;8.686;2023-04-05T00:57:55;92.01;44.43;109.06;;
60116;Laerm;62818;49.394;8.686;2023-04-05T00:58:55;92.26;44.80;109.04;;
60116;Laerm;62818;49.394;8.686;2023-04-05T01:00:01;91.45;44.43;109.20;;
60116;Laerm;62818;49.394;8.686;2023-04-05T01:01:12;45.27;44.31;48.18;;
60116;Laerm;62818;49.394;8.686;2023-04-05T01:02:31;91.17;44.35;108.89;;
60116;Laerm;62818;49.394;8.686;2023-04-05T01:03:34;92.30;44.65;109.29;;
60116;Laerm;62818;49.394;8.686;2023-04-05T01:04:40;91.97;44.51;109.08;;
60116;Laerm;62818;49.394;8.686;2023-04-05T01:07:13;91.99;44.54;109.26;;
60116;Laerm;62818;49.394;8.686;2023-04-05T01:09:56;90.98;44.58;109.07;;
60116;Laerm;62818;49.394;8.686;2023-04-05T01:11:02;91.94;44.31;109.02;;
60116;Laerm;62818;49.394;8.686;2023-04-05T01:12:09;92.19;44.65;109.13;;
60116;Laerm;62818;49.394;8.686;2023-04-05T01:13:11;92.28;44.39;109.11;;
60116;Laerm;62818;49.394;8.686;2023-04-05T01:14:12;92.28;44.58;109.30;;
60116;Laerm;62818;49.394;8.686;2023-04-05T01:15:12;92.18;44.47;108.95;;
60116;Laerm;62818;49.394;8.686;2023-04-05T01:16:13;92.06;44.43;109.24;;
60116;Laerm;62818;49.394;8.686;2023-04-05T01:17:15;92.04;44.27;109.24;;
60116;Laerm;62818;49.394;8.686;2023-04-05T01:18:21;91.84;45.91;109.09;;
60116;Laerm;62818;49.394;8.686;2023-04-05T01:19:28;91.83;44.76;109.10;;
60116;Laerm;62818;49.394;8.686;2023-04-05T01:20:37;92.02;44.58;109.11;;
60116;Laerm;62818;49.394;8.686;2023-04-05T01:26:28;91.32;44.87;109.11;;
60116;Laerm;62818;49.394;8.686;2023-04-05T01:30:37;91.27;44.62;109.29;;
60116;Laerm;62818;49.394;8.686;2023-04-05T01:33:43;91.08;44.39;109.03;;
60116;Laerm;62818;49.394;8.686;2023-04-05T01:36:38;90.22;44.39;109.15;;
60116;Laerm;62818;49.394;8.686;2023-04-05T01:37:41;92.22;44.43;109.09;;
60116;Laerm;62818;49.394;8.686;2023-04-05T01:38:49;93.63;44.51;109.28;;
60116;Laerm;62818;49.394;8.686;2023-04-05T01:39:50;92.31;44.47;108.86;;
60116;Laerm;62818;49.394;8.686;2023-04-05T01:40:53;92.06;44.58;109.15;;
60116;Laerm;62818;49.394;8.686;2023-04-05T01:42:01;91.82;44.23;109.14;;
60116;Laerm;62818;49.394;8.686;2023-04-05T01:43:02;92.21;46.55;109.06;;
60116;Laerm;62818;49.394;8.686;2023-04-05T01:44:02;92.34;46.28;109.20;;
60116;Laerm;62818;49.394;8.686;2023-04-05T01:45:03;93.44;44.39;109.21;;
60116;Laerm;62818;49.394;8.686;2023-04-05T01:46:04;92.34;44.65;109.24;;
60116;Laerm;62818;49.394;8.686;2023-04-05T01:47:04;92.30;44.90;109.19;;
60116;Laerm;62818;49.394;8.686;2023-04-05T01:48:05;92.21;44.47;109.34;;
60116;Laerm;62818;49.394;8.686;2023-04-05T01:49:06;92.01;44.47;109.16;;
60116;Laerm;62818;49.394;8.686;2023-04-05T01:50:08;92.73;44.51;109.33;;
60116;Laerm;62818;49.394;8.686;2023-04-05T01:51:08;92.30;45.01;109.27;;
60116;Laerm;62818;49.394;8.686;2023-04-05T01:52:09;91.72;44.62;109.20;;
60116;Laerm;62818;49.394;8.686;2023-04-05T01:53:09;92.18;44.31;109.30;;
60116;Laerm;62818;49.394;8.686;2023-04-05T01:54:10;91.78;44.54;109.27;;
60116;Laerm;62818;49.394;8.686;2023-04-05T01:55:10;92.88;44.54;109.34;;
60116;Laerm;62818;49.394;8.686;2023-04-05T01:56:11;91.81;44.43;109.46;;
60116;Laerm;62818;49.394;8.686;2023-04-05T01:57:11;92.15;44.56;109.27;;
60116;Laerm;62818;49.394;8.686;2023-04-05T01:58:12;93.01;44.51;109.24;;
60116;Laerm;62818;49.394;8.686;2023-04-05T01:59:12;92.24;44.47;109.45;;
60116;Laerm;62818;49.394;8.686;2023-04-05T02:00:13;91.92;44.51;109.33;;
60116;Laerm;62818;49.394;8.686;2023-04-05T02:01:13;91.86;45.14;109.28;;
60116;Laerm;62818;49.394;8.686;2023-04-05T02:02:14;92.44;45.04;109.37;;
60116;Laerm;62818;49.394;8.686;2023-04-05T02:03:14;92.18;45.04;109.07;;
60116;Laerm;62818;49.394;8.686;2023-04-05T02:04:18;92.11;45.23;109.34;;
60116;Laerm;62818;49.394;8.686;2023-04-05T02:05:18;92.42;46.15;109.35;;
60116;Laerm;62818;49.394;8.686;2023-04-05T02:06:19;92.44;45.01;109.41;;
60116;Laerm;62818;49.394;8.686;2023-04-05T02:07:19;92.29;44.73;109.37;;
60116;Laerm;62818;49.394;8.686;2023-04-05T02:08:20;92.91;44.47;109.23;;
60116;Laerm;62818;49.394;8.686;2023-04-05T02:09:20;92.41;44.47;109.38;;
60116;Laerm;62818;49.394;8.686;2023-04-05T02:10:22;92.04;44.80;109.21;;
60116;Laerm;62818;49.394;8.686;2023-04-05T02:11:22;92.40;44.97;109.40;;
60116;Laerm;62818;49.394;8.686;2023-04-05T02:12:23;92.31;44.69;109.51;;
60116;Laerm;62818;49.394;8.686;2023-04-05T02:13:23;91.96;44.39;109.31;;
60116;Laerm;62818;49.394;8.686;2023-04-05T02:14:25;92.18;44.65;109.41;;
60116;Laerm;62818;49.394;8.686;2023-04-05T02:15:25;92.40;44.39;109.41;;
60116;Laerm;62818;49.394;8.686;2023-04-05T02:16:26;92.09;45.45;109.30;;
60116;Laerm;62818;49.394;8.686;2023-04-05T02:17:27;92.39;44.87;109.31;;
60116;Laerm;62818;49.394;8.686;2023-04-05T02:18:33;92.32;44.31;109.37;;
60116;Laerm;62818;49.394;8.686;2023-04-05T02:19:34;92.26;44.54;109.40;;
60116;Laerm;62818;49.394;8.686;2023-04-05T02:20:40;92.48;44.43;109.36;;
60116;Laerm;62818;49.394;8.686;2023-04-05T02:21:41;93.47;38.81;109.19;;
60116;Laerm;62818;49.394;8.686;2023-04-05T02:22:41;93.24;40.62;109.29;;
60116;Laerm;62818;49.394;8.686;2023-04-05T02:23:44;92.38;39.92;109.33;;
60116;Laerm;62818;49.394;8.686;2023-04-05T02:24:44;91.99;41.22;109.31;;
60116;Laerm;62818;49.394;8.686;2023-04-05T02:25:45;91.95;42.42;109.43;;
60116;Laerm;62818;49.394;8.686;2023-04-05T02:26:46;92.40;39.21;109.36;;
60116;Laerm;62818;49.394;8.686;2023-04-05T02:27:47;92.22;39.34;109.46;;
60116;Laerm;62818;49.394;8.686;2023-04-05T02:28:48;92.32;40.03;109.41;;
60116;Laerm;62818;49.394;8.686;2023-04-05T02:29:48;92.35;40.03;109.29;;
60116;Laerm;62818;49.394;8.686;2023-04-05T02:30:49;92.35;40.13;109.51;;
60116;Laerm;62818;49.394;8.686;2023-04-05T02:31:49;92.76;40.43;109.49;;
60116;Laerm;62818;49.394;8.686;2023-04-05T02:32:50;92.05;42.22;109.45;;
60116;Laerm;62818;49.394;8.686;2023-04-05T02:33:50;92.38;44.27;109.39;;
60116;Laerm;62818;49.394;8.686;2023-04-05T02:34:51;92.48;43.54;109.49;;
60116;Laerm;62818;49.394;8.686;2023-04-05T02:35:52;92.62;43.86;109.58;;
60116;Laerm;62818;49.394;8.686;2023-04-05T02:36:53;92.75;43.34;109.27;;
60116;Laerm;62818;49.394;8.686;2023-04-05T02:37:54;92.39;43.99;109.50;;
60116;Laerm;62818;49.394;8.686;2023-04-05T02:38:55;92.65;43.86;109.44;;
60116;Laerm;62818;49.394;8.686;2023-04-05T02:39:56;92.46;43.90;109.37;;
60116;Laerm;62818;49.394;8.686;2023-04-05T02:40:56;92.49;42.41;109.43;;
60116;Laerm;62818;49.394;8.686;2023-04-05T02:41:57;92.58;42.35;109.38;;
60116;Laerm;62818;49.394;8.686;2023-04-05T02:42:58;92.99;41.06;109.56;;
60116;Laerm;62818;49.394;8.686;2023-04-05T02:43:58;93.33;42.22;109.50;;
60116;Laerm;62818;49.394;8.686;2023-04-05T02:44:59;91.98;41.75;109.27;;
60116;Laerm;62818;49.394;8.686;2023-04-05T02:46:00;92.16;39.70;109.62;;
60116;Laerm;62818;49.394;8.686;2023-04-05T02:47:01;92.91;41.30;109.20;;
60116;Laerm;62818;49.394;8.686;2023-04-05T02:48:01;92.53;40.71;109.57;;
60116;Laerm;62818;49.394;8.686;2023-04-05T02:49:01;92.32;40.33;109.37;;
60116;Laerm;62818;49.394;8.686;2023-04-05T02:50:02;93.36;40.33;109.39;;
60116;Laerm;62818;49.394;8.686;2023-04-05T02:51:03;91.96;42.24;109.46;;
60116;Laerm;62818;49.394;8.686;2023-04-05T02:52:04;92.37;42.76;109.29;;
60116;Laerm;62818;49.394;8.686;2023-04-05T02:53:04;92.39;42.59;109.39;;
60116;Laerm;62818;49.394;8.686;2023-04-05T02:54:05;92.13;41.89;109.25;;
60116;Laerm;62818;49.394;8.686;2023-04-05T02:55:06;92.50;43.29;109.41;;
60116;Laerm;62818;49.394;8.686;2023-04-05T02:56:07;92.54;41.68;109.29;;
60116;Laerm;62818;49.394;8.686;2023-04-05T02:57:07;92.77;40.89;109.57;;
60116;Laerm;62818;49.394;8.686;2023-04-05T02:58:10;92.48;40.89;109.49;;
60116;Laerm;62818;49.394;8.686;2023-04-05T02:59:13;92.87;41.22;109.35;;
60116;Laerm;62818;49.394;8.686;2023-04-05T03:00:15;93.11;40.98;108.83;;
60116;Laerm;62818;49.394;8.686;2023-04-05T03:01:16;92.53;41.96;109.15;;
60116;Laerm;62818;49.394;8.686;2023-04-05T03:02:17;92.45;40.71;109.41;;
60116;Laerm;62818;49.394;8.686;2023-04-05T03:03:21;92.55;39.58;109.48;;
60116;Laerm;62818;49.394;8.686;2023-04-05T03:04:22;92.22;45.23;109.34;;
60116;Laerm;62818;49.394;8.686;2023-04-05T03:05:25;92.27;44.87;109.29;;
60116;Laerm;62818;49.394;8.686;2023-04-05T03:06:26;91.96;47.28;109.37;;
60116;Laerm;62818;49.394;8.686;2023-04-05T03:07:27;91.99;46.28;109.41;;
60116;Laerm;62818;49.394;8.686;2023-04-05T03:08:27;92.27;45.69;109.41;;
60116;Laerm;62818;49.394;8.686;2023-04-05T03:09:29;92.30;46.15;109.54;;
60116;Laerm;62818;49.394;8.686;2023-04-05T03:10:32;92.49;47.18;109.33;;
60116;Laerm;62818;49.394;8.686;2023-04-05T03:11:35;92.62;46.06;109.42;;
60116;Laerm;62818;49.394;8.686;2023-04-05T03:12:35;92.85;47.05;109.35;;
60116;Laerm;62818;49.394;8.686;2023-04-05T03:13:36;92.12;46.33;109.64;;
60116;Laerm;62818;49.394;8.686;2023-04-05T03:14:37;92.73;46.97;109.53;;
60116;Laerm;62818;49.394;8.686;2023-04-05T03:15:38;92.59;45.94;109.57;;
60116;Laerm;62818;49.394;8.686;2023-04-05T03:16:38;92.44;45.94;109.42;;
60116;Laerm;62818;49.394;8.686;2023-04-05T03:17:39;92.43;45.11;109.18;;
60116;Laerm;62818;49.394;8.686;2023-04-05T03:18:43;92.64;45.04;109.38;;
60116;Laerm;62818;49.394;8.686;2023-04-05T03:19:43;92.82;45.11;109.56;;
60116;Laerm;62818;49.394;8.686;2023-04-05T03:20:46;92.32;44.83;109.49;;
60116;Laerm;62818;49.394;8.686;2023-04-05T03:21:49;92.83;44.83;109.51;;
60116;Laerm;62818;49.394;8.686;2023-04-05T03:22:49;93.27;45.51;109.52;;
60116;Laerm;62818;49.394;8.686;2023-04-05T03:23:50;92.23;45.97;109.64;;
60116;Laerm;62818;49.394;8.686;2023-04-05T03:24:50;92.43;45.94;109.50;;
60116;Laerm;62818;49.394;8.686;2023-04-05T03:26:02;91.93;45.63;109.51;;
60116;Laerm;62818;49.394;8.686;2023-04-05T03:27:03;92.76;46.05;109.66;;
60116;Laerm;62818;49.394;8.686;2023-04-05T03:28:05;92.66;45.72;109.32;;
60116;Laerm;62818;49.394;8.686;2023-04-05T03:29:07;92.57;46.86;109.57;;
60116;Laerm;62818;49.394;8.686;2023-04-05T03:30:08;93.03;46.10;109.40;;
60116;Laerm;62818;49.394;8.686;2023-04-05T03:31:10;92.55;48.59;109.50;;
60116;Laerm;62818;49.394;8.686;2023-04-05T03:32:11;54.74;45.60;66.23;;
60116;Laerm;62818;49.394;8.686;2023-04-05T03:33:13;92.44;45.42;109.19;;
60116;Laerm;62818;49.394;8.686;2023-04-05T03:34:13;92.49;45.57;109.51;;
60116;Laerm;62818;49.394;8.686;2023-04-05T03:35:14;92.43;46.33;109.41;;
60116;Laerm;62818;49.394;8.686;2023-04-05T03:36:15;92.71;45.36;109.41;;
60116;Laerm;62818;49.394;8.686;2023-04-05T03:37:17;92.39;45.72;109.52;;
60116;Laerm;62818;49.394;8.686;2023-04-05T03:38:17;92.36;47.00;109.39;;
60116;Laerm;62818;49.394;8.686;2023-04-05T03:39:18;92.25;45.86;109.54;;
60116;Laerm;62818;49.394;8.686;2023-04-05T03:40:18;92.32;45.91;109.47;;
60116;Laerm;62818;49.394;8.686;2023-04-05T03:41:18;92.47;45.86;109.44;;
60116;Laerm;62818;49.394;8.686;2023-04-05T03:42:20;92.53;44.97;109.39;;
60116;Laerm;62818;49.394;8.686;2023-04-05T03:43:20;92.49;45.75;109.46;;
60116;Laerm;62818;49.394;8.686;2023-04-05T03:44:21;92.54;46.38;109.60;;
60116;Laerm;62818;49.394;8.686;2023-04-05T03:45:21;92.36;45.77;109.46;;
60116;Laerm;62818;49.394;8.686;2023-04-05T03:46:22;92.19;45.91;109.15;;
60116;Laerm;62818;49.394;8.686;2023-04-05T03:47:22;92.46;44.23;109.34;;
60116;Laerm;62818;49.394;8.686;2023-04-05T03:48:22;92.20;46.82;109.35;;
60116;Laerm;62818;49.394;8.686;2023-04-05T03:49:23;92.57;46.33;109.51;;
60116;Laerm;62818;49.394;8.686;2023-04-05T03:50:25;92.44;46.69;109.57;;
60116;Laerm;62818;49.394;8.686;2023-04-05T03:51:28;92.39;46.43;109.55;;
60116;Laerm;62818;49.394;8.686;2023-04-05T03:52:29;92.42;46.97;109.26;;
60116;Laerm;62818;49.394;8.686;2023-04-05T03:53:29;92.46;45.57;109.61;;
60116;Laerm;62818;49.394;8.686;2023-04-05T03:54:30;92.68;46.84;109.41;;
60116;Laerm;62818;49.394;8.686;2023-04-05T03:55:30;92.68;45.66;109.47;;
60116;Laerm;62818;49.394;8.686;2023-04-05T03:56:31;92.49;45.80;109.53;;
60116;Laerm;62818;49.394;8.686;2023-04-05T03:57:33;92.55;45.69;109.53;;
60116;Laerm;62818;49.394;8.686;2023-04-05T03:58:33;92.66;47.00;109.55;;
60116;Laerm;62818;49.394;8.686;2023-04-05T03:59:34;92.45;47.67;109.53;;
60116;Laerm;62818;49.394;8.686;2023-04-05T04:00:34;92.55;47.61;109.50;;
60116;Laerm;62818;49.394;8.686;2023-04-05T04:01:35;92.37;47.16;109.50;;
60116;Laerm;62818;49.394;8.686;2023-04-05T04:02:36;92.60;46.55;109.44;;
60116;Laerm;62818;49.394;8.686;2023-04-05T04:03:36;92.46;48.37;109.44;;
60116;Laerm;62818;49.394;8.686;2023-04-05T04:04:37;92.51;46.45;109.47;;
60116;Laerm;62818;49.394;8.686;2023-04-05T04:05:37;92.51;50.26;109.38;;
60116;Laerm;62818;49.394;8.686;2023-04-05T04:06:38;92.50;49.93;109.63;;
60116;Laerm;62818;49.394;8.686;2023-04-05T04:07:39;92.86;49.71;109.36;;
60116;Laerm;62818;49.394;8.686;2023-04-05T04:08:41;92.73;51.35;109.35;;
60116;Laerm;62818;49.394;8.686;2023-04-05T04:09:41;93.62;49.24;109.78;;
60116;Laerm;62818;49.394;8.686;2023-04-05T04:10:42;92.50;48.32;109.60;;
60116;Laerm;62818;49.394;8.686;2023-04-05T04:11:42;92.60;49.10;109.48;;
60116;Laerm;62818;49.394;8.686;2023-04-05T04:12:43;92.64;50.19;109.65;;
60116;Laerm;62818;49.394;8.686;2023-04-05T04:13:44;92.65;46.55;109.61;;
60116;Laerm;62818;49.394;8.686;2023-04-05T04:14:44;92.63;46.93;109.36;;
60116;Laerm;62818;49.394;8.686;2023-04-05T04:15:45;92.52;49.67;109.53;;
60116;Laerm;62818;49.394;8.686;2023-04-05T04:16:45;92.42;46.50;109.45;;
60116;Laerm;62818;49.394;8.686;2023-04-05T04:17:46;92.57;47.91;109.53;;
60116;Laerm;62818;49.394;8.686;2023-04-05T04:18:46;92.39;50.61;109.33;;
60116;Laerm;62818;49.394;8.686;2023-04-05T04:19:47;93.14;47.42;109.49;;
60116;Laerm;62818;49.394;8.686;2023-04-05T04:20:47;92.38;46.97;109.61;;
60116;Laerm;62818;49.394;8.686;2023-04-05T04:21:50;92.41;47.06;109.53;;
60116;Laerm;62818;49.394;8.686;2023-04-05T04:22:51;92.85;46.80;109.41;;
60116;Laerm;62818;49.394;8.686;2023-04-05T04:23:53;92.88;47.28;109.54;;
60116;Laerm;62818;49.394;8.686;2023-04-05T04:24:55;92.78;54.51;109.59;;
60116;Laerm;62818;49.394;8.686;2023-04-05T04:25:55;92.53;47.61;109.67;;
60116;Laerm;62818;49.394;8.686;2023-04-05T04:26:55;92.56;49.46;109.30;;
60116;Laerm;62818;49.394;8.686;2023-04-05T04:27:57;92.61;57.27;109.64;;
60116;Laerm;62818;49.394;8.686;2023-04-05T04:28:57;92.57;50.45;109.40;;
60116;Laerm;62818;49.394;8.686;2023-04-05T04:29:58;92.67;48.52;109.58;;
60116;Laerm;62818;49.394;8.686;2023-04-05T04:31:03;92.69;47.14;109.54;;
60116;Laerm;62818;49.394;8.686;2023-04-05T04:32:04;92.57;46.59;109.55;;
60116;Laerm;62818;49.394;8.686;2023-04-05T04:33:06;92.93;46.57;109.51;;
60116;Laerm;62818;49.394;8.686;2023-04-05T04:34:07;58.25;46.38;68.80;;
60116;Laerm;62818;49.394;8.686;2023-04-05T04:35:09;93.60;49.60;109.51;;
60116;Laerm;62818;49.394;8.686;2023-04-05T04:36:10;92.86;46.57;109.68;;
60116;Laerm;62818;49.394;8.686;2023-04-05T04:37:13;92.91;46.64;109.80;;
60116;Laerm;62818;49.394;8.686;2023-04-05T04:38:17;92.78;47.20;109.74;;
60116;Laerm;62818;49.394;8.686;2023-04-05T04:39:20;92.90;49.32;109.66;;
60116;Laerm;62818;49.394;8.686;2023-04-05T04:40:34;92.21;46.64;109.53;;
60116;Laerm;62818;49.394;8.686;2023-04-05T04:41:38;60.91;45.77;69.47;;
60116;Laerm;62818;49.394;8.686;2023-04-05T04:42:46;92.74;47.10;109.44;;
60116;Laerm;62818;49.394;8.686;2023-04-05T04:43:46;92.78;47.57;109.65;;
60116;Laerm;62818;49.394;8.686;2023-04-05T04:44:47;92.36;47.72;109.36;;
60116;Laerm;62818;49.394;8.686;2023-04-05T04:45:49;92.91;48.51;109.64;;
60116;Laerm;62818;49.394;8.686;2023-04-05T04:46:51;92.83;46.48;109.63;;
60116;Laerm;62818;49.394;8.686;2023-04-05T04:47:54;92.87;46.59;109.44;;
60116;Laerm;62818;49.394;8.686;2023-04-05T04:48:54;92.54;50.23;109.55;;
60116;Laerm;62818;49.394;8.686;2023-04-05T04:49:56;92.90;50.42;109.73;;
60116;Laerm;62818;49.394;8.686;2023-04-05T04:51:01;92.72;46.48;109.76;;
60116;Laerm;62818;49.394;8.686;2023-04-05T04:52:01;93.05;51.49;109.57;;
60116;Laerm;62818;49.394;8.686;2023-04-05T04:53:02;93.38;47.08;109.72;;
60116;Laerm;62818;49.394;8.686;2023-04-05T04:54:02;92.61;47.32;109.54;;
60116;Laerm;62818;49.394;8.686;2023-04-05T04:55:03;92.59;48.31;109.47;;
60116;Laerm;62818;49.394;8.686;2023-04-05T04:56:08;64.78;47.63;81.75;;
60116;Laerm;62818;49.394;8.686;2023-04-05T04:57:09;92.63;51.06;109.42;;
60116;Laerm;62818;49.394;8.686;2023-04-05T04:58:11;93.70;48.46;109.68;;
60116;Laerm;62818;49.394;8.686;2023-04-05T04:59:12;92.81;50.81;109.67;;
60116;Laerm;62818;49.394;8.686;2023-04-05T05:00:13;92.54;47.28;109.55;;
60116;Laerm;62818;49.394;8.686;2023-04-05T05:01:14;92.49;47.95;109.48;;
60116;Laerm;62818;49.394;8.686;2023-04-05T05:02:15;93.73;49.19;109.16;;
60116;Laerm;62818;49.394;8.686;2023-04-05T05:03:15;92.45;48.39;109.47;;
60116;Laerm;62818;49.394;8.686;2023-04-05T05:04:16;92.39;50.92;109.55;;
60116;Laerm;62818;49.394;8.686;2023-04-05T05:05:17;92.54;50.54;109.48;;
60116;Laerm;62818;49.394;8.686;2023-04-05T05:06:21;92.54;48.58;109.34;;
60116;Laerm;62818;49.394;8.686;2023-04-05T05:07:22;92.38;47.26;109.33;;
60116;Laerm;62818;49.394;8.686;2023-04-05T05:08:22;92.33;51.97;109.49;;
60116;Laerm;62818;49.394;8.686;2023-04-05T05:09:23;92.37;48.95;109.28;;
60116;Laerm;62818;49.394;8.686;2023-04-05T05:10:23;92.37;45.75;109.55;;
60116;Laerm;62818;49.394;8.686;2023-04-05T05:11:24;92.63;50.44;109.38;;
60116;Laerm;62818;49.394;8.686;2023-04-05T05:12:24;92.56;48.45;109.20;;
60116;Laerm;62818;49.394;8.686;2023-04-05T05:13:26;92.61;52.98;109.49;;
60116;Laerm;62818;49.394;8.686;2023-04-05T05:14:26;92.60;50.15;109.62;;
60116;Laerm;62818;49.394;8.686;2023-04-05T05:15:27;92.52;48.26;109.43;;
60116;Laerm;62818;49.394;8.686;2023-04-05T05:16:27;92.40;48.66;109.29;;
60116;Laerm;62818;49.394;8.686;2023-04-05T05:17:28;92.44;52.31;109.47;;
60116;Laerm;62818;49.394;8.686;2023-04-05T05:18:28;92.94;51.30;109.33;;
60116;Laerm;62818;49.394;8.686;2023-04-05T05:19:29;93.96;51.81;109.60;;
60116;Laerm;62818;49.394;8.686;2023-04-05T05:20:31;92.55;52.10;109.50;;
60116;Laerm;62818;49.394;8.686;2023-04-05T05:21:31;92.44;47.46;109.40;;
60116;Laerm;62818;49.394;8.686;2023-04-05T05:22:32;92.62;47.50;109.34;;
60116;Laerm;62818;49.394;8.686;2023-04-05T05:23:32;92.46;55.96;109.41;;
60116;Laerm;62818;49.394;8.686;2023-04-05T05:24:33;92.26;48.07;109.37;;
60116;Laerm;62818;49.394;8.686;2023-04-05T05:25:33;92.29;47.40;109.09;;
60116;Laerm;62818;49.394;8.686;2023-04-05T05:26:34;92.20;50.33;109.51;;
60116;Laerm;62818;49.394;8.686;2023-04-05T05:27:35;92.63;48.95;109.26;;
60116;Laerm;62818;49.394;8.686;2023-04-05T05:28:36;92.39;47.98;109.35;;
60116;Laerm;62818;49.394;8.686;2023-04-05T05:29:37;61.33;47.14;80.70;;
60116;Laerm;62818;49.394;8.686;2023-04-05T05:30:38;92.52;47.44;109.20;;
60116;Laerm;62818;49.394;8.686;2023-04-05T05:31:38;92.64;47.14;109.31;;
60116;Laerm;62818;49.394;8.686;2023-04-05T05:32:39;93.08;49.88;109.03;;
60116;Laerm;62818;49.394;8.686;2023-04-05T05:33:40;93.02;49.85;109.38;;
60116;Laerm;62818;49.394;8.686;2023-04-05T05:34:41;92.13;49.23;109.24;;
60116;Laerm;62818;49.394;8.686;2023-04-05T05:35:48;92.16;48.90;109.27;;
60116;Laerm;62818;49.394;8.686;2023-04-05T05:36:49;92.63;55.60;109.21;;
60116;Laerm;62818;49.394;8.686;2023-04-05T05:37:51;92.56;47.93;109.27;;
60116;Laerm;62818;49.394;8.686;2023-04-05T05:38:52;92.16;48.84;109.18;;
60116;Laerm;62818;49.394;8.686;2023-04-05T05:39:53;92.75;49.52;109.37;;
60116;Laerm;62818;49.394;8.686;2023-04-05T05:40:55;93.12;47.54;109.40;;
60116;Laerm;62818;49.394;8.686;2023-04-05T05:41:57;92.64;47.24;109.50;;
60116;Laerm;62818;49.394;8.686;2023-04-05T05:42:57;92.25;53.03;109.32;;
60116;Laerm;62818;49.394;8.686;2023-04-05T05:43:58;93.80;45.01;109.53;;
60116;Laerm;62818;49.394;8.686;2023-04-05T05:45:04;91.97;45.07;109.48;;
60116;Laerm;62818;49.394;8.686;2023-04-05T05:46:05;92.87;49.67;109.26;;
60116;Laerm;62818;49.394;8.686;2023-04-05T05:47:05;92.32;47.06;109.33;;
60116;Laerm;62818;49.394;8.686;2023-04-05T05:48:06;92.24;44.76;109.56;;
60116;Laerm;62818;49.394;8.686;2023-04-05T05:49:06;92.22;45.69;109.28;;
60116;Laerm;62818;49.394;8.686;2023-04-05T05:50:07;92.17;48.31;109.25;;
60116;Laerm;62818;49.394;8.686;2023-04-05T05:51:09;92.60;46.52;109.09;;
60116;Laerm;62818;49.394;8.686;2023-04-05T05:52:10;92.05;45.66;109.27;;
60116;Laerm;62818;49.394;8.686;2023-04-05T05:53:10;92.13;46.18;109.09;;
60116;Laerm;62818;49.394;8.686;2023-04-05T05:54:10;92.16;45.07;109.20;;